Orlando, Florida
Traffic Map
Current Weather Conditions
Orlando, Florida
Clear
Clear
26°
Feels Like: 26°
Wind Chill: 26° Ceiling: Unl
Heat Index: 26° Visibility: 10mi
Dew Point: 13° Wind: 7mph
Humidity: 44% Direction: 40° (NE)
Pressure: 29.93in Gusts: 0mph
Raw Report DataKORL 232053Z 04006KT 10SM CLR 26/13 A2993 RMK AO2 SLP139 T02610128 56015
Traffic Incident Summary
Active as of:
Severity:
Category:
InformationThere was an issue retrieving the traffic information for this location. Please try a different location or try again shortly.
Advertisements
Track Severe Weather on mobile